sensor_id;sensor_type;location;lat;lon;timestamp;temperature;humidity
13093;DHT22;6612;49.568;11.000;2023-02-13T00:00:16;7.70;61.00
13093;DHT22;6612;49.568;11.000;2023-02-13T00:02:43;7.70;61.10
13093;DHT22;6612;49.568;11.000;2023-02-13T00:05:10;7.60;61.00
13093;DHT22;6612;49.568;11.000;2023-02-13T00:07:37;7.50;61.00
13093;DHT22;6612;49.568;11.000;2023-02-13T00:10:05;7.50;61.00
13093;DHT22;6612;49.568;11.000;2023-02-13T00:12:32;7.40;61.00
13093;DHT22;6612;49.568;11.000;2023-02-13T00:14:59;7.30;61.00
13093;DHT22;6612;49.568;11.000;2023-02-13T00:17:28;7.30;61.80
13093;DHT22;6612;49.568;11.000;2023-02-13T00:19:54;7.20;60.90
13093;DHT22;6612;49.568;11.000;2023-02-13T00:22:21;7.10;60.90
13093;DHT22;6612;49.568;11.000;2023-02-13T00:24:48;7.10;61.00
13093;DHT22;6612;49.568;11.000;2023-02-13T00:27:16;7.00;61.00
13093;DHT22;6612;49.568;11.000;2023-02-13T00:29:42;7.00;61.00
13093;DHT22;6612;49.568;11.000;2023-02-13T00:32:09;6.90;61.00
13093;DHT22;6612;49.568;11.000;2023-02-13T00:34:38;6.80;61.00
13093;DHT22;6612;49.568;11.000;2023-02-13T00:37:05;6.80;61.10
13093;DHT22;6612;49.568;11.000;2023-02-13T00:39:32;6.70;61.10
13093;DHT22;6612;49.568;11.000;2023-02-13T00:41:58;6.70;61.20
13093;DHT22;6612;49.568;11.000;2023-02-13T00:44:25;6.60;61.20
13093;DHT22;6612;49.568;11.000;2023-02-13T00:46:52;6.60;61.30
13093;DHT22;6612;49.568;11.000;2023-02-13T00:49:19;6.50;61.30
13093;DHT22;6612;49.568;11.000;2023-02-13T00:51:48;6.50;62.10
13093;DHT22;6612;49.568;11.000;2023-02-13T00:54:14;6.50;61.40
13093;DHT22;6612;49.568;11.000;2023-02-13T00:56:41;6.40;61.30
13093;DHT22;6612;49.568;11.000;2023-02-13T00:59:08;6.30;61.30
13093;DHT22;6612;49.568;11.000;2023-02-13T01:01:35;6.30;61.30
13093;DHT22;6612;49.568;11.000;2023-02-13T01:04:02;6.30;61.30
13093;DHT22;6612;49.568;11.000;2023-02-13T01:06:29;6.20;61.20
13093;DHT22;6612;49.568;11.000;2023-02-13T01:08:57;6.20;61.30
13093;DHT22;6612;49.568;11.000;2023-02-13T01:11:24;6.10;61.30
13093;DHT22;6612;49.568;11.000;2023-02-13T01:13:51;6.10;61.40
13093;DHT22;6612;49.568;11.000;2023-02-13T01:16:18;6.00;61.40
13093;DHT22;6612;49.568;11.000;2023-02-13T01:18:45;6.00;61.60
13093;DHT22;6612;49.568;11.000;2023-02-13T01:21:15;6.00;61.70
13093;DHT22;6612;49.568;11.000;2023-02-13T01:23:42;5.90;61.80
13093;DHT22;6612;49.568;11.000;2023-02-13T01:26:16;5.90;61.80
13093;DHT22;6612;49.568;11.000;2023-02-13T01:28:44;6.00;62.00
13093;DHT22;6612;49.568;11.000;2023-02-13T01:31:11;5.80;61.80
13093;DHT22;6612;49.568;11.000;2023-02-13T01:33:38;5.80;61.90
13093;DHT22;6612;49.568;11.000;2023-02-13T01:36:07;5.70;61.80
13093;DHT22;6612;49.568;11.000;2023-02-13T01:38:34;5.70;62.00
13093;DHT22;6612;49.568;11.000;2023-02-13T01:41:01;5.70;62.00
13093;DHT22;6612;49.568;11.000;2023-02-13T01:43:45;5.70;62.00
13093;DHT22;6612;49.568;11.000;2023-02-13T01:46:16;5.60;62.00
13093;DHT22;6612;49.568;11.000;2023-02-13T01:48:44;5.60;62.10
13093;DHT22;6612;49.568;11.000;2023-02-13T01:51:14;5.50;62.10
13093;DHT22;6612;49.568;11.000;2023-02-13T01:53:44;5.50;62.10
13093;DHT22;6612;49.568;11.000;2023-02-13T01:56:16;5.50;62.30
13093;DHT22;6612;49.568;11.000;2023-02-13T01:58:47;5.40;62.30
13093;DHT22;6612;49.568;11.000;2023-02-13T02:01:14;5.40;62.40
13093;DHT22;6612;49.568;11.000;2023-02-13T02:03:44;5.40;62.40
13093;DHT22;6612;49.568;11.000;2023-02-13T02:06:19;5.40;62.40
13093;DHT22;6612;49.568;11.000;2023-02-13T02:08:48;5.40;62.30
13093;DHT22;6612;49.568;11.000;2023-02-13T02:11:21;5.30;62.20
13093;DHT22;6612;49.568;11.000;2023-02-13T02:13:52;5.30;62.20
13093;DHT22;6612;49.568;11.000;2023-02-13T02:16:20;5.30;62.20
13093;DHT22;6612;49.568;11.000;2023-02-13T02:18:46;5.20;62.80
13093;DHT22;6612;49.568;11.000;2023-02-13T02:21:39;5.20;62.20
13093;DHT22;6612;49.568;11.000;2023-02-13T02:24:23;5.20;62.20
13093;DHT22;6612;49.568;11.000;2023-02-13T02:27:09;5.30;62.40
13093;DHT22;6612;49.568;11.000;2023-02-13T02:32:47;5.10;62.30
13093;DHT22;6612;49.568;11.000;2023-02-13T02:35:22;5.10;63.00
13093;DHT22;6612;49.568;11.000;2023-02-13T02:40:56;5.00;62.20
13093;DHT22;6612;49.568;11.000;2023-02-13T02:43:38;5.00;62.20
13093;DHT22;6612;49.568;11.000;2023-02-13T02:46:12;5.00;62.20
13093;DHT22;6612;49.568;11.000;2023-02-13T02:48:48;5.00;62.20
13093;DHT22;6612;49.568;11.000;2023-02-13T02:51:39;4.90;62.20
13093;DHT22;6612;49.568;11.000;2023-02-13T02:54:14;4.90;62.20
13093;DHT22;6612;49.568;11.000;2023-02-13T02:57:05;4.80;62.20
13093;DHT22;6612;49.568;11.000;2023-02-13T02:59:35;4.80;62.20
13093;DHT22;6612;49.568;11.000;2023-02-13T03:02:21;4.80;62.20
13093;DHT22;6612;49.568;11.000;2023-02-13T03:05:16;4.70;62.10
13093;DHT22;6612;49.568;11.000;2023-02-13T03:08:03;4.70;62.10
13093;DHT22;6612;49.568;11.000;2023-02-13T03:10:33;4.70;62.30
13093;DHT22;6612;49.568;11.000;2023-02-13T03:13:32;4.70;62.50
13093;DHT22;6612;49.568;11.000;2023-02-13T03:16:02;4.60;62.40
13093;DHT22;6612;49.568;11.000;2023-02-13T03:18:50;4.60;62.50
13093;DHT22;6612;49.568;11.000;2023-02-13T03:21:44;4.60;62.50
13093;DHT22;6612;49.568;11.000;2023-02-13T03:24:38;4.60;62.50
13093;DHT22;6612;49.568;11.000;2023-02-13T03:27:10;4.60;62.50
13093;DHT22;6612;49.568;11.000;2023-02-13T03:29:44;4.50;62.40
13093;DHT22;6612;49.568;11.000;2023-02-13T03:32:36;4.50;62.40
13093;DHT22;6612;49.568;11.000;2023-02-13T03:35:15;4.50;62.40
13093;DHT22;6612;49.568;11.000;2023-02-13T03:38:12;4.50;62.50
13093;DHT22;6612;49.568;11.000;2023-02-13T03:40:46;4.40;62.70
13093;DHT22;6612;49.568;11.000;2023-02-13T03:43:30;4.40;62.90
13093;DHT22;6612;49.568;11.000;2023-02-13T03:45:59;4.50;63.20
13093;DHT22;6612;49.568;11.000;2023-02-13T03:48:30;4.50;63.40
13093;DHT22;6612;49.568;11.000;2023-02-13T03:51:20;4.50;63.50
13093;DHT22;6612;49.568;11.000;2023-02-13T03:53:53;4.50;64.30
13093;DHT22;6612;49.568;11.000;2023-02-13T03:56:21;4.50;63.60
13093;DHT22;6612;49.568;11.000;2023-02-13T03:59:11;4.50;63.70
13093;DHT22;6612;49.568;11.000;2023-02-13T04:01:49;4.60;63.80
13093;DHT22;6612;49.568;11.000;2023-02-13T04:04:22;4.60;63.80
13093;DHT22;6612;49.568;11.000;2023-02-13T04:06:54;4.60;63.90
13093;DHT22;6612;49.568;11.000;2023-02-13T04:09:24;4.70;64.10
13093;DHT22;6612;49.568;11.000;2023-02-13T04:11:57;4.70;64.00
13093;DHT22;6612;49.568;11.000;2023-02-13T04:14:31;4.70;64.00
13093;DHT22;6612;49.568;11.000;2023-02-13T04:17:04;4.80;64.10
13093;DHT22;6612;49.568;11.000;2023-02-13T04:19:31;4.80;64.10
13093;DHT22;6612;49.568;11.000;2023-02-13T04:22:00;4.80;64.10
13093;DHT22;6612;49.568;11.000;2023-02-13T04:24:29;4.80;64.10
13093;DHT22;6612;49.568;11.000;2023-02-13T04:26:56;4.90;64.20
13093;DHT22;6612;49.568;11.000;2023-02-13T04:29:25;4.80;64.10
13093;DHT22;6612;49.568;11.000;2023-02-13T04:31:52;4.90;64.20
13093;DHT22;6612;49.568;11.000;2023-02-13T04:34:19;4.90;64.10
13093;DHT22;6612;49.568;11.000;2023-02-13T04:36:46;4.90;64.10
13093;DHT22;6612;49.568;11.000;2023-02-13T04:39:13;5.00;64.20
13093;DHT22;6612;49.568;11.000;2023-02-13T04:41:42;5.00;64.20
13093;DHT22;6612;49.568;11.000;2023-02-13T04:44:09;5.00;64.10
13093;DHT22;6612;49.568;11.000;2023-02-13T04:46:36;5.00;64.20
13093;DHT22;6612;49.568;11.000;2023-02-13T04:49:03;5.00;64.20
13093;DHT22;6612;49.568;11.000;2023-02-13T04:51:30;5.10;64.40
13093;DHT22;6612;49.568;11.000;2023-02-13T04:53:57;5.10;64.40
13093;DHT22;6612;49.568;11.000;2023-02-13T04:56:24;5.10;64.40
13093;DHT22;6612;49.568;11.000;2023-02-13T04:58:53;5.10;64.30
13093;DHT22;6612;49.568;11.000;2023-02-13T05:01:21;5.20;64.40
13093;DHT22;6612;49.568;11.000;2023-02-13T05:03:48;5.20;64.30
13093;DHT22;6612;49.568;11.000;2023-02-13T05:06:15;5.20;64.20
13093;DHT22;6612;49.568;11.000;2023-02-13T05:08:42;5.20;64.20
13093;DHT22;6612;49.568;11.000;2023-02-13T05:11:08;5.20;64.10
13093;DHT22;6612;49.568;11.000;2023-02-13T05:13:35;5.20;64.10
13093;DHT22;6612;49.568;11.000;2023-02-13T05:16:04;5.20;64.00
13093;DHT22;6612;49.568;11.000;2023-02-13T05:18:31;5.20;63.90
13093;DHT22;6612;49.568;11.000;2023-02-13T05:20:58;5.20;63.80
13093;DHT22;6612;49.568;11.000;2023-02-13T05:23:43;5.20;63.80
13093;DHT22;6612;49.568;11.000;2023-02-13T05:26:10;5.20;63.70
13093;DHT22;6612;49.568;11.000;2023-02-13T05:28:37;5.10;63.70
13093;DHT22;6612;49.568;11.000;2023-02-13T05:31:27;5.10;63.70
13093;DHT22;6612;49.568;11.000;2023-02-13T05:33:54;5.10;63.80
13093;DHT22;6612;49.568;11.000;2023-02-13T05:36:21;5.10;63.90
13093;DHT22;6612;49.568;11.000;2023-02-13T05:38:48;5.10;64.00
13093;DHT22;6612;49.568;11.000;2023-02-13T05:41:15;5.20;64.00
13093;DHT22;6612;49.568;11.000;2023-02-13T05:43:42;5.20;64.10
13093;DHT22;6612;49.568;11.000;2023-02-13T05:46:09;5.10;64.00
13093;DHT22;6612;49.568;11.000;2023-02-13T05:48:37;5.10;64.00
13093;DHT22;6612;49.568;11.000;2023-02-13T05:51:04;5.10;64.00
13093;DHT22;6612;49.568;11.000;2023-02-13T05:53:31;5.10;63.90
13093;DHT22;6612;49.568;11.000;2023-02-13T05:56:00;5.10;63.90
13093;DHT22;6612;49.568;11.000;2023-02-13T05:58:27;5.10;63.90
13093;DHT22;6612;49.568;11.000;2023-02-13T06:00:55;5.10;63.90
13093;DHT22;6612;49.568;11.000;2023-02-13T06:03:22;5.10;63.80
13093;DHT22;6612;49.568;11.000;2023-02-13T06:05:50;5.10;63.80
13093;DHT22;6612;49.568;11.000;2023-02-13T06:08:17;5.10;63.70
13093;DHT22;6612;49.568;11.000;2023-02-13T06:10:45;5.10;63.80
13093;DHT22;6612;49.568;11.000;2023-02-13T06:13:12;5.10;63.80
13093;DHT22;6612;49.568;11.000;2023-02-13T06:15:39;5.00;64.40
13093;DHT22;6612;49.568;11.000;2023-02-13T06:18:06;5.10;63.60
13093;DHT22;6612;49.568;11.000;2023-02-13T06:20:34;5.10;63.40
13093;DHT22;6612;49.568;11.000;2023-02-13T06:23:02;5.10;63.10
13093;DHT22;6612;49.568;11.000;2023-02-13T06:25:30;5.00;62.80
13093;DHT22;6612;49.568;11.000;2023-02-13T06:27:56;5.00;62.70
13093;DHT22;6612;49.568;11.000;2023-02-13T06:30:23;5.00;62.70
13093;DHT22;6612;49.568;11.000;2023-02-13T06:32:50;4.90;62.80
13093;DHT22;6612;49.568;11.000;2023-02-13T06:35:17;4.90;63.00
13093;DHT22;6612;49.568;11.000;2023-02-13T06:37:45;4.90;63.10
13093;DHT22;6612;49.568;11.000;2023-02-13T06:40:15;4.80;63.00
13093;DHT22;6612;49.568;11.000;2023-02-13T06:42:42;4.80;63.10
13093;DHT22;6612;49.568;11.000;2023-02-13T06:45:10;4.80;63.30
13093;DHT22;6612;49.568;11.000;2023-02-13T06:47:40;4.80;63.30
13093;DHT22;6612;49.568;11.000;2023-02-13T06:50:07;4.80;63.20
13093;DHT22;6612;49.568;11.000;2023-02-13T06:52:34;4.80;63.30
13093;DHT22;6612;49.568;11.000;2023-02-13T06:55:02;4.80;63.20
13093;DHT22;6612;49.568;11.000;2023-02-13T06:57:31;4.80;63.10
13093;DHT22;6612;49.568;11.000;2023-02-13T06:59:58;4.70;62.90
13093;DHT22;6612;49.568;11.000;2023-02-13T07:02:29;4.80;63.20
13093;DHT22;6612;49.568;11.000;2023-02-13T07:04:56;4.70;63.20
13093;DHT22;6612;49.568;11.000;2023-02-13T07:07:23;4.80;63.60
13093;DHT22;6612;49.568;11.000;2023-02-13T07:09:50;4.80;63.70
13093;DHT22;6612;49.568;11.000;2023-02-13T07:12:17;4.80;63.90
13093;DHT22;6612;49.568;11.000;2023-02-13T07:14:45;4.80;64.00
13093;DHT22;6612;49.568;11.000;2023-02-13T07:17:12;4.90;64.10
13093;DHT22;6612;49.568;11.000;2023-02-13T07:19:39;4.90;64.20
13093;DHT22;6612;49.568;11.000;2023-02-13T07:22:06;4.90;64.20
13093;DHT22;6612;49.568;11.000;2023-02-13T07:24:33;5.00;64.40
13093;DHT22;6612;49.568;11.000;2023-02-13T07:27:03;5.00;64.40
13093;DHT22;6612;49.568;11.000;2023-02-13T07:29:30;5.20;64.70
13093;DHT22;6612;49.568;11.000;2023-02-13T07:31:58;5.10;64.70
13093;DHT22;6612;49.568;11.000;2023-02-13T07:34:25;5.20;64.80
13093;DHT22;6612;49.568;11.000;2023-02-13T07:36:52;5.20;64.90
13093;DHT22;6612;49.568;11.000;2023-02-13T07:39:19;5.30;65.00
13093;DHT22;6612;49.568;11.000;2023-02-13T07:41:46;5.40;65.20
13093;DHT22;6612;49.568;11.000;2023-02-13T07:44:13;5.40;65.20
13093;DHT22;6612;49.568;11.000;2023-02-13T07:46:39;5.50;65.30
13093;DHT22;6612;49.568;11.000;2023-02-13T07:49:08;5.60;66.10
13093;DHT22;6612;49.568;11.000;2023-02-13T07:51:35;5.70;65.40
13093;DHT22;6612;49.568;11.000;2023-02-13T07:54:02;5.80;65.60
13093;DHT22;6612;49.568;11.000;2023-02-13T07:56:29;5.80;65.60
13093;DHT22;6612;49.568;11.000;2023-02-13T07:58:56;5.80;65.50
13093;DHT22;6612;49.568;11.000;2023-02-13T08:01:22;6.00;65.80
13093;DHT22;6612;49.568;11.000;2023-02-13T08:03:50;6.10;65.80
13093;DHT22;6612;49.568;11.000;2023-02-13T08:06:19;6.10;65.60
13093;DHT22;6612;49.568;11.000;2023-02-13T08:08:46;6.20;65.50
13093;DHT22;6612;49.568;11.000;2023-02-13T08:11:23;6.30;65.60
13093;DHT22;6612;49.568;11.000;2023-02-13T08:14:07;6.30;65.10
13093;DHT22;6612;49.568;11.000;2023-02-13T08:16:34;6.50;65.60
13093;DHT22;6612;49.568;11.000;2023-02-13T08:19:01;6.50;65.50
13093;DHT22;6612;49.568;11.000;2023-02-13T08:21:30;6.50;65.30
13093;DHT22;6612;49.568;11.000;2023-02-13T08:23:57;6.60;65.10
13093;DHT22;6612;49.568;11.000;2023-02-13T08:26:24;6.60;64.90
13093;DHT22;6612;49.568;11.000;2023-02-13T08:28:51;6.70;65.00
13093;DHT22;6612;49.568;11.000;2023-02-13T08:31:18;6.70;65.00
13093;DHT22;6612;49.568;11.000;2023-02-13T08:33:45;6.80;65.10
13093;DHT22;6612;49.568;11.000;2023-02-13T08:36:12;6.80;65.20
13093;DHT22;6612;49.568;11.000;2023-02-13T08:38:40;6.90;65.30
13093;DHT22;6612;49.568;11.000;2023-02-13T08:41:07;7.00;65.30
13093;DHT22;6612;49.568;11.000;2023-02-13T08:43:35;7.00;65.30
13093;DHT22;6612;49.568;11.000;2023-02-13T08:46:01;7.10;65.10
13093;DHT22;6612;49.568;11.000;2023-02-13T08:48:29;7.10;65.00
13093;DHT22;6612;49.568;11.000;2023-02-13T08:50:56;7.20;65.00
13093;DHT22;6612;49.568;11.000;2023-02-13T08:53:23;7.20;65.00
13093;DHT22;6612;49.568;11.000;2023-02-13T08:55:54;7.30;65.00
13093;DHT22;6612;49.568;11.000;2023-02-13T08:58:22;7.40;64.70
13093;DHT22;6612;49.568;11.000;2023-02-13T09:00:49;7.40;65.00
13093;DHT22;6612;49.568;11.000;2023-02-13T09:03:16;7.50;65.00
13093;DHT22;6612;49.568;11.000;2023-02-13T09:05:43;7.60;65.00
13093;DHT22;6612;49.568;11.000;2023-02-13T09:08:10;7.60;65.00
13093;DHT22;6612;49.568;11.000;2023-02-13T09:10:39;7.70;65.00
13093;DHT22;6612;49.568;11.000;2023-02-13T09:13:08;7.80;65.00
13093;DHT22;6612;49.568;11.000;2023-02-13T09:15:37;7.80;64.70
13093;DHT22;6612;49.568;11.000;2023-02-13T09:18:05;7.90;64.40
13093;DHT22;6612;49.568;11.000;2023-02-13T09:20:32;8.00;64.60
13093;DHT22;6612;49.568;11.000;2023-02-13T09:22:59;8.00;64.60
13093;DHT22;6612;49.568;11.000;2023-02-13T09:25:26;8.10;64.60
13093;DHT22;6612;49.568;11.000;2023-02-13T09:27:53;8.20;64.60
13093;DHT22;6612;49.568;11.000;2023-02-13T09:30:21;8.20;64.30
13093;DHT22;6612;49.568;11.000;2023-02-13T09:32:49;8.30;64.00
13093;DHT22;6612;49.568;11.000;2023-02-13T09:35:16;8.30;64.10
13093;DHT22;6612;49.568;11.000;2023-02-13T09:37:43;8.30;64.20
13093;DHT22;6612;49.568;11.000;2023-02-13T09:40:24;8.40;64.50
13093;DHT22;6612;49.568;11.000;2023-02-13T09:42:53;8.50;64.00
13093;DHT22;6612;49.568;11.000;2023-02-13T09:45:22;8.60;64.70
13093;DHT22;6612;49.568;11.000;2023-02-13T09:47:49;8.60;64.40
13093;DHT22;6612;49.568;11.000;2023-02-13T09:50:20;8.70;64.70
13093;DHT22;6612;49.568;11.000;2023-02-13T09:52:49;8.80;64.50
13093;DHT22;6612;49.568;11.000;2023-02-13T09:55:18;8.90;64.40
13093;DHT22;6612;49.568;11.000;2023-02-13T09:57:53;9.00;64.00
13093;DHT22;6612;49.568;11.000;2023-02-13T10:00:28;9.10;63.70
13093;DHT22;6612;49.568;11.000;2023-02-13T10:03:23;9.10;63.70
13093;DHT22;6612;49.568;11.000;2023-02-13T10:05:59;9.20;63.10
13093;DHT22;6612;49.568;11.000;2023-02-13T10:08:44;9.30;64.00
13093;DHT22;6612;49.568;11.000;2023-02-13T10:11:26;9.30;63.60
13093;DHT22;6612;49.568;11.000;2023-02-13T10:14:03;9.50;64.00
13093;DHT22;6612;49.568;11.000;2023-02-13T10:16:36;9.50;64.20
13093;DHT22;6612;49.568;11.000;2023-02-13T10:19:07;9.60;64.20
13093;DHT22;6612;49.568;11.000;2023-02-13T10:21:42;9.70;64.30
13093;DHT22;6612;49.568;11.000;2023-02-13T10:24:16;9.70;63.80
13093;DHT22;6612;49.568;11.000;2023-02-13T10:26:48;9.80;63.90
13093;DHT22;6612;49.568;11.000;2023-02-13T10:29:20;9.90;64.30
13093;DHT22;6612;49.568;11.000;2023-02-13T10:32:09;10.00;63.00
13093;DHT22;6612;49.568;11.000;2023-02-13T10:34:41;10.10;63.70
13093;DHT22;6612;49.568;11.000;2023-02-13T10:37:13;10.20;63.00
13093;DHT22;6612;49.568;11.000;2023-02-13T10:39:43;10.30;63.00
13093;DHT22;6612;49.568;11.000;2023-02-13T10:42:19;10.40;62.90
13093;DHT22;6612;49.568;11.000;2023-02-13T10:45:01;10.40;62.10
13093;DHT22;6612;49.568;11.000;2023-02-13T10:47:41;10.50;61.60
13093;DHT22;6612;49.568;11.000;2023-02-13T10:50:16;10.50;61.30
13093;DHT22;6612;49.568;11.000;2023-02-13T10:52:51;10.60;61.50
13093;DHT22;6612;49.568;11.000;2023-02-13T10:55:46;10.60;61.50
13093;DHT22;6612;49.568;11.000;2023-02-13T10:58:19;10.70;60.60
13093;DHT22;6612;49.568;11.000;2023-02-13T11:00:49;10.70;61.60
13093;DHT22;6612;49.568;11.000;2023-02-13T11:03:21;10.80;61.90
13093;DHT22;6612;49.568;11.000;2023-02-13T11:05:49;10.90;62.90
13093;DHT22;6612;49.568;11.000;2023-02-13T11:08:20;10.90;62.20
13093;DHT22;6612;49.568;11.000;2023-02-13T11:10:48;11.00;61.70
13093;DHT22;6612;49.568;11.000;2023-02-13T11:13:17;11.10;61.50
13093;DHT22;6612;49.568;11.000;2023-02-13T11:15:59;11.10;60.90
13093;DHT22;6612;49.568;11.000;2023-02-13T11:18:30;11.20;61.00
13093;DHT22;6612;49.568;11.000;2023-02-13T11:21:00;11.20;61.30
13093;DHT22;6612;49.568;11.000;2023-02-13T11:23:43;11.20;60.30
13093;DHT22;6612;49.568;11.000;2023-02-13T11:26:14;11.10;59.20
13093;DHT22;6612;49.568;11.000;2023-02-13T11:28:49;11.10;59.60
13093;DHT22;6612;49.568;11.000;2023-02-13T11:31:24;11.10;59.50
13093;DHT22;6612;49.568;11.000;2023-02-13T11:33:53;11.00;59.70
13093;DHT22;6612;49.568;11.000;2023-02-13T11:36:26;10.90;59.10
13093;DHT22;6612;49.568;11.000;2023-02-13T11:38:58;10.80;58.80
13093;DHT22;6612;49.568;11.000;2023-02-13T11:41:25;10.80;59.00
13093;DHT22;6612;49.568;11.000;2023-02-13T11:43:54;10.70;59.20
13093;DHT22;6612;49.568;11.000;2023-02-13T11:46:27;10.60;59.30
13093;DHT22;6612;49.568;11.000;2023-02-13T11:49:00;10.50;59.40
13093;DHT22;6612;49.568;11.000;2023-02-13T11:51:35;10.50;59.20
13093;DHT22;6612;49.568;11.000;2023-02-13T11:54:03;10.50;59.10
13093;DHT22;6612;49.568;11.000;2023-02-13T11:56:46;10.40;59.50
13093;DHT22;6612;49.568;11.000;2023-02-13T11:59:13;10.30;59.00
13093;DHT22;6612;49.568;11.000;2023-02-13T12:01:41;10.30;59.70
13093;DHT22;6612;49.568;11.000;2023-02-13T12:04:15;10.30;59.80
13093;DHT22;6612;49.568;11.000;2023-02-13T12:06:58;10.20;59.50
13093;DHT22;6612;49.568;11.000;2023-02-13T12:09:26;10.20;59.50
13093;DHT22;6612;49.568;11.000;2023-02-13T12:11:56;10.20;60.10
13093;DHT22;6612;49.568;11.000;2023-02-13T12:14:28;10.20;60.10
13093;DHT22;6612;49.568;11.000;2023-02-13T12:17:00;10.20;60.30
13093;DHT22;6612;49.568;11.000;2023-02-13T12:19:34;10.20;60.30
13093;DHT22;6612;49.568;11.000;2023-02-13T12:25:26;10.20;60.30
13093;DHT22;6612;49.568;11.000;2023-02-13T12:28:10;10.20;60.30
13093;DHT22;6612;49.568;11.000;2023-02-13T12:31:03;10.20;60.60
13093;DHT22;6612;49.568;11.000;2023-02-13T12:36:45;10.30;60.70
13093;DHT22;6612;49.568;11.000;2023-02-13T12:39:24;10.30;61.10
13093;DHT22;6612;49.568;11.000;2023-02-13T12:42:14;10.30;61.10
13093;DHT22;6612;49.568;11.000;2023-02-13T12:44:58;10.30;61.30
13093;DHT22;6612;49.568;11.000;2023-02-13T12:47:28;10.40;61.40
13093;DHT22;6612;49.568;11.000;2023-02-13T12:53:15;10.40;61.00
13093;DHT22;6612;49.568;11.000;2023-02-13T12:55:59;10.50;61.20
13093;DHT22;6612;49.568;11.000;2023-02-13T12:58:55;10.50;61.40
13093;DHT22;6612;49.568;11.000;2023-02-13T13:01:35;10.50;61.10
13093;DHT22;6612;49.568;11.000;2023-02-13T13:04:12;10.60;61.80
13093;DHT22;6612;49.568;11.000;2023-02-13T13:06:52;10.60;61.80
13093;DHT22;6612;49.568;11.000;2023-02-13T13:09:51;10.60;61.70
13093;DHT22;6612;49.568;11.000;2023-02-13T13:12:29;10.70;61.60
13093;DHT22;6612;49.568;11.000;2023-02-13T13:15:05;10.70;62.70
13093;DHT22;6612;49.568;11.000;2023-02-13T13:17:46;10.80;62.10
13093;DHT22;6612;49.568;11.000;2023-02-13T13:20:44;10.80;62.00
13093;DHT22;6612;49.568;11.000;2023-02-13T13:23:19;10.80;61.50
13093;DHT22;6612;49.568;11.000;2023-02-13T13:25:55;10.90;62.20
13093;DHT22;6612;49.568;11.000;2023-02-13T13:28:31;11.00;62.10
13093;DHT22;6612;49.568;11.000;2023-02-13T13:30:59;11.00;63.10
13093;DHT22;6612;49.568;11.000;2023-02-13T13:33:26;11.00;62.30
13093;DHT22;6612;49.568;11.000;2023-02-13T13:36:06;11.00;62.20
13093;DHT22;6612;49.568;11.000;2023-02-13T13:38:45;11.10;62.70
13093;DHT22;6612;49.568;11.000;2023-02-13T13:41:22;11.10;61.70
13093;DHT22;6612;49.568;11.000;2023-02-13T13:44:06;11.20;61.60
13093;DHT22;6612;49.568;11.000;2023-02-13T13:46:47;11.20;61.30
13093;DHT22;6612;49.568;11.000;2023-02-13T13:49:34;11.30;61.50
13093;DHT22;6612;49.568;11.000;2023-02-13T13:52:18;11.30;61.50
13093;DHT22;6612;49.568;11.000;2023-02-13T13:54:45;11.30;61.30
13093;DHT22;6612;49.568;11.000;2023-02-13T13:57:18;11.30;62.50
13093;DHT22;6612;49.568;11.000;2023-02-13T14:00:00;11.40;61.60
13093;DHT22;6612;49.568;11.000;2023-02-13T14:02:39;11.40;60.80
13093;DHT22;6612;49.568;11.000;2023-02-13T14:05:19;11.40;60.70
13093;DHT22;6612;49.568;11.000;2023-02-13T14:07:48;11.40;60.50
13093;DHT22;6612;49.568;11.000;2023-02-13T14:10:57;11.40;61.30
13093;DHT22;6612;49.568;11.000;2023-02-13T14:13:30;11.50;60.00
13093;DHT22;6612;49.568;11.000;2023-02-13T14:15:58;11.50;60.90
13093;DHT22;6612;49.568;11.000;2023-02-13T14:18:25;11.50;61.30
13093;DHT22;6612;49.568;11.000;2023-02-13T14:20:54;11.50;61.20
13093;DHT22;6612;49.568;11.000;2023-02-13T14:23:44;11.50;61.10
13093;DHT22;6612;49.568;11.000;2023-02-13T14:26:41;11.50;60.00
13093;DHT22;6612;49.568;11.000;2023-02-13T14:29:32;11.50;59.80
13093;DHT22;6612;49.568;11.000;2023-02-13T14:32:06;11.50;60.00
13093;DHT22;6612;49.568;11.000;2023-02-13T14:34:35;11.60;60.90
13093;DHT22;6612;49.568;11.000;2023-02-13T14:37:16;11.50;60.90
13093;DHT22;6612;49.568;11.000;2023-02-13T14:40:25;11.60;60.30
13093;DHT22;6612;49.568;11.000;2023-02-13T14:42:55;11.60;60.00
13093;DHT22;6612;49.568;11.000;2023-02-13T14:45:28;11.60;61.00
13093;DHT22;6612;49.568;11.000;2023-02-13T14:47:57;11.60;60.50
13093;DHT22;6612;49.568;11.000;2023-02-13T14:50:30;11.60;60.80
13093;DHT22;6612;49.568;11.000;2023-02-13T14:53:01;11.60;60.60
13093;DHT22;6612;49.568;11.000;2023-02-13T14:55:34;11.60;60.60
13093;DHT22;6612;49.568;11.000;2023-02-13T14:58:05;11.60;60.20
13093;DHT22;6612;49.568;11.000;2023-02-13T15:00:40;11.60;60.20
13093;DHT22;6612;49.568;11.000;2023-02-13T15:03:21;11.60;60.10
13093;DHT22;6612;49.568;11.000;2023-02-13T15:05:51;11.60;59.90
13093;DHT22;6612;49.568;11.000;2023-02-13T15:08:20;11.60;60.30
13093;DHT22;6612;49.568;11.000;2023-02-13T15:10:50;11.60;60.20
13093;DHT22;6612;49.568;11.000;2023-02-13T15:13:20;11.60;60.30
13093;DHT22;6612;49.568;11.000;2023-02-13T15:15:53;11.60;60.20
13093;DHT22;6612;49.568;11.000;2023-02-13T15:18:23;11.50;59.90
13093;DHT22;6612;49.568;11.000;2023-02-13T15:20:53;11.60;60.20
13093;DHT22;6612;49.568;11.000;2023-02-13T15:23:24;11.50;60.00
13093;DHT22;6612;49.568;11.000;2023-02-13T15:25:59;11.50;60.00
13093;DHT22;6612;49.568;11.000;2023-02-13T15:28:27;11.50;59.60
13093;DHT22;6612;49.568;11.000;2023-02-13T15:30:58;11.50;60.10
13093;DHT22;6612;49.568;11.000;2023-02-13T15:33:26;11.50;59.80
13093;DHT22;6612;49.568;11.000;2023-02-13T15:35:55;11.40;59.80
13093;DHT22;6612;49.568;11.000;2023-02-13T15:38:25;11.40;59.80
13093;DHT22;6612;49.568;11.000;2023-02-13T15:40:55;11.40;59.80
13093;DHT22;6612;49.568;11.000;2023-02-13T15:43:29;11.40;59.80
13093;DHT22;6612;49.568;11.000;2023-02-13T15:46:01;11.30;59.60
13093;DHT22;6612;49.568;11.000;2023-02-13T15:48:30;11.30;59.60
13093;DHT22;6612;49.568;11.000;2023-02-13T15:50:58;11.30;59.70
13093;DHT22;6612;49.568;11.000;2023-02-13T15:53:26;11.30;59.80
13093;DHT22;6612;49.568;11.000;2023-02-13T15:55:59;11.20;59.70
13093;DHT22;6612;49.568;11.000;2023-02-13T15:58:31;11.20;59.40
13093;DHT22;6612;49.568;11.000;2023-02-13T16:01:02;11.10;59.40
13093;DHT22;6612;49.568;11.000;2023-02-13T16:03:31;11.10;59.40
13093;DHT22;6612;49.568;11.000;2023-02-13T16:05:58;11.10;59.60
13093;DHT22;6612;49.568;11.000;2023-02-13T16:08:36;11.00;59.60
13093;DHT22;6612;49.568;11.000;2023-02-13T16:11:29;10.90;59.10
13093;DHT22;6612;49.568;11.000;2023-02-13T16:14:06;10.90;59.10
13093;DHT22;6612;49.568;11.000;2023-02-13T16:16:46;10.80;59.10
13093;DHT22;6612;49.568;11.000;2023-02-13T16:19:22;10.80;59.20
13093;DHT22;6612;49.568;11.000;2023-02-13T16:21:50;10.70;59.10
13093;DHT22;6612;49.568;11.000;2023-02-13T16:24:18;10.60;59.30
13093;DHT22;6612;49.568;11.000;2023-02-13T16:26:45;10.60;59.40